sensor_id;sensor_type;location;lat;lon;timestamp;temperature;humidity
7518;DHT22;3800;48.922;9.444;2023-09-19T00:02:18;17.70;99.90
7518;DHT22;3800;48.922;9.444;2023-09-19T00:04:47;17.70;99.90
7518;DHT22;3800;48.922;9.444;2023-09-19T00:07:15;17.70;99.90
7518;DHT22;3800;48.922;9.444;2023-09-19T00:09:43;17.70;99.90
7518;DHT22;3800;48.922;9.444;2023-09-19T00:12:11;17.70;99.90
7518;DHT22;3800;48.922;9.444;2023-09-19T00:14:41;17.70;99.90
7518;DHT22;3800;48.922;9.444;2023-09-19T00:17:10;17.70;99.90
7518;DHT22;3800;48.922;9.444;2023-09-19T00:19:38;17.70;99.90
7518;DHT22;3800;48.922;9.444;2023-09-19T00:22:07;17.70;99.90
7518;DHT22;3800;48.922;9.444;2023-09-19T00:24:35;17.60;99.90
7518;DHT22;3800;48.922;9.444;2023-09-19T00:27:05;17.50;99.90
7518;DHT22;3800;48.922;9.444;2023-09-19T00:29:33;17.50;99.90
7518;DHT22;3800;48.922;9.444;2023-09-19T00:32:02;17.50;99.90
7518;DHT22;3800;48.922;9.444;2023-09-19T00:34:30;17.50;99.90
7518;DHT22;3800;48.922;9.444;2023-09-19T00:36:59;17.40;99.90
7518;DHT22;3800;48.922;9.444;2023-09-19T00:39:27;17.40;99.90
7518;DHT22;3800;48.922;9.444;2023-09-19T00:41:57;17.30;99.90
7518;DHT22;3800;48.922;9.444;2023-09-19T00:44:25;17.30;99.90
7518;DHT22;3800;48.922;9.444;2023-09-19T00:46:54;17.30;99.90
7518;DHT22;3800;48.922;9.444;2023-09-19T00:49:23;17.20;99.90
7518;DHT22;3800;48.922;9.444;2023-09-19T00:51:51;17.20;99.90
7518;DHT22;3800;48.922;9.444;2023-09-19T00:54:20;17.20;99.90
7518;DHT22;3800;48.922;9.444;2023-09-19T00:56:48;17.20;99.90
7518;DHT22;3800;48.922;9.444;2023-09-19T00:59:16;17.20;99.90
7518;DHT22;3800;48.922;9.444;2023-09-19T01:01:45;17.20;99.90
7518;DHT22;3800;48.922;9.444;2023-09-19T01:04:13;17.20;99.90
7518;DHT22;3800;48.922;9.444;2023-09-19T01:06:43;17.20;99.90
7518;DHT22;3800;48.922;9.444;2023-09-19T01:09:11;17.10;99.90
7518;DHT22;3800;48.922;9.444;2023-09-19T01:11:40;17.10;99.90
7518;DHT22;3800;48.922;9.444;2023-09-19T01:16:48;17.10;99.90
7518;DHT22;3800;48.922;9.444;2023-09-19T01:19:27;17.10;99.90
7518;DHT22;3800;48.922;9.444;2023-09-19T01:24:54;17.10;99.90
7518;DHT22;3800;48.922;9.444;2023-09-19T01:30:33;17.00;99.90
7518;DHT22;3800;48.922;9.444;2023-09-19T01:33:01;17.00;99.90
7518;DHT22;3800;48.922;9.444;2023-09-19T01:35:30;17.00;99.90
7518;DHT22;3800;48.922;9.444;2023-09-19T01:37:59;17.00;99.90
7518;DHT22;3800;48.922;9.444;2023-09-19T01:40:27;17.00;99.90
7518;DHT22;3800;48.922;9.444;2023-09-19T01:43:18;17.00;99.90
7518;DHT22;3800;48.922;9.444;2023-09-19T01:46:12;17.00;99.90
7518;DHT22;3800;48.922;9.444;2023-09-19T01:48:42;17.00;99.90
7518;DHT22;3800;48.922;9.444;2023-09-19T01:51:10;17.00;99.90
7518;DHT22;3800;48.922;9.444;2023-09-19T01:53:50;17.00;99.90
7518;DHT22;3800;48.922;9.444;2023-09-19T01:56:23;17.00;99.90
7518;DHT22;3800;48.922;9.444;2023-09-19T01:58:52;17.00;99.90
7518;DHT22;3800;48.922;9.444;2023-09-19T02:01:20;17.00;99.90
7518;DHT22;3800;48.922;9.444;2023-09-19T02:03:48;16.90;99.90
7518;DHT22;3800;48.922;9.444;2023-09-19T02:06:17;17.00;99.90
7518;DHT22;3800;48.922;9.444;2023-09-19T02:08:45;17.00;99.90
7518;DHT22;3800;48.922;9.444;2023-09-19T02:11:13;17.00;99.90
7518;DHT22;3800;48.922;9.444;2023-09-19T02:13:42;17.00;99.90
7518;DHT22;3800;48.922;9.444;2023-09-19T02:16:10;17.00;99.90
7518;DHT22;3800;48.922;9.444;2023-09-19T02:18:39;17.00;99.90
7518;DHT22;3800;48.922;9.444;2023-09-19T02:21:07;17.00;99.90
7518;DHT22;3800;48.922;9.444;2023-09-19T02:23:35;17.00;99.90
7518;DHT22;3800;48.922;9.444;2023-09-19T02:26:04;17.00;99.90
7518;DHT22;3800;48.922;9.444;2023-09-19T02:28:33;17.00;99.90
7518;DHT22;3800;48.922;9.444;2023-09-19T02:31:01;17.00;99.90
7518;DHT22;3800;48.922;9.444;2023-09-19T02:33:29;17.00;99.90
7518;DHT22;3800;48.922;9.444;2023-09-19T02:35:58;17.00;99.90
7518;DHT22;3800;48.922;9.444;2023-09-19T02:38:27;16.90;99.90
7518;DHT22;3800;48.922;9.444;2023-09-19T02:40:55;16.90;99.90
7518;DHT22;3800;48.922;9.444;2023-09-19T02:43:25;16.90;99.90
7518;DHT22;3800;48.922;9.444;2023-09-19T02:45:53;16.90;99.90
7518;DHT22;3800;48.922;9.444;2023-09-19T02:48:22;16.90;99.90
7518;DHT22;3800;48.922;9.444;2023-09-19T02:50:50;16.80;99.90
7518;DHT22;3800;48.922;9.444;2023-09-19T02:53:19;16.80;99.90
7518;DHT22;3800;48.922;9.444;2023-09-19T02:55:47;16.80;99.90
7518;DHT22;3800;48.922;9.444;2023-09-19T02:58:15;16.70;99.90
7518;DHT22;3800;48.922;9.444;2023-09-19T03:00:43;16.70;99.90
7518;DHT22;3800;48.922;9.444;2023-09-19T03:03:14;16.70;99.90
7518;DHT22;3800;48.922;9.444;2023-09-19T03:05:42;16.70;99.90
7518;DHT22;3800;48.922;9.444;2023-09-19T03:08:12;16.70;99.90
7518;DHT22;3800;48.922;9.444;2023-09-19T03:10:41;16.60;99.90
7518;DHT22;3800;48.922;9.444;2023-09-19T03:13:09;16.60;99.90
7518;DHT22;3800;48.922;9.444;2023-09-19T03:15:40;16.60;99.90
7518;DHT22;3800;48.922;9.444;2023-09-19T03:18:06;16.60;99.90
7518;DHT22;3800;48.922;9.444;2023-09-19T03:20:35;16.60;99.90
7518;DHT22;3800;48.922;9.444;2023-09-19T03:23:03;16.60;99.90
7518;DHT22;3800;48.922;9.444;2023-09-19T03:25:34;16.60;99.90
7518;DHT22;3800;48.922;9.444;2023-09-19T03:28:01;16.60;99.90
7518;DHT22;3800;48.922;9.444;2023-09-19T03:30:29;16.60;99.90
7518;DHT22;3800;48.922;9.444;2023-09-19T03:32:58;16.70;99.90
7518;DHT22;3800;48.922;9.444;2023-09-19T03:35:26;16.70;99.90
7518;DHT22;3800;48.922;9.444;2023-09-19T03:37:54;16.60;99.90
7518;DHT22;3800;48.922;9.444;2023-09-19T03:40:23;16.70;99.90
7518;DHT22;3800;48.922;9.444;2023-09-19T03:42:51;16.70;99.90
7518;DHT22;3800;48.922;9.444;2023-09-19T03:45:19;16.70;99.90
7518;DHT22;3800;48.922;9.444;2023-09-19T03:47:47;16.70;99.90
7518;DHT22;3800;48.922;9.444;2023-09-19T03:50:16;16.70;99.90
7518;DHT22;3800;48.922;9.444;2023-09-19T03:52:44;16.70;99.90
7518;DHT22;3800;48.922;9.444;2023-09-19T03:55:13;16.70;99.90
7518;DHT22;3800;48.922;9.444;2023-09-19T03:57:42;16.70;99.90
7518;DHT22;3800;48.922;9.444;2023-09-19T04:00:11;16.70;99.90
7518;DHT22;3800;48.922;9.444;2023-09-19T04:02:40;16.70;99.90
7518;DHT22;3800;48.922;9.444;2023-09-19T04:05:08;16.70;99.90
7518;DHT22;3800;48.922;9.444;2023-09-19T04:07:37;16.70;99.90
7518;DHT22;3800;48.922;9.444;2023-09-19T04:10:06;16.70;99.90
7518;DHT22;3800;48.922;9.444;2023-09-19T04:12:34;16.70;99.90
7518;DHT22;3800;48.922;9.444;2023-09-19T04:15:02;16.70;99.90
7518;DHT22;3800;48.922;9.444;2023-09-19T04:17:31;16.70;99.90
7518;DHT22;3800;48.922;9.444;2023-09-19T04:20:00;16.70;99.90
7518;DHT22;3800;48.922;9.444;2023-09-19T04:22:28;16.60;99.90
7518;DHT22;3800;48.922;9.444;2023-09-19T04:24:56;16.60;99.90
7518;DHT22;3800;48.922;9.444;2023-09-19T04:27:25;16.60;99.90
7518;DHT22;3800;48.922;9.444;2023-09-19T04:29:53;16.60;99.90
7518;DHT22;3800;48.922;9.444;2023-09-19T04:32:21;16.60;99.90
7518;DHT22;3800;48.922;9.444;2023-09-19T04:34:50;16.50;99.90
7518;DHT22;3800;48.922;9.444;2023-09-19T04:37:18;16.50;99.90
7518;DHT22;3800;48.922;9.444;2023-09-19T04:39:46;16.50;99.90
7518;DHT22;3800;48.922;9.444;2023-09-19T04:42:15;16.50;99.90
7518;DHT22;3800;48.922;9.444;2023-09-19T04:44:43;16.50;99.90
7518;DHT22;3800;48.922;9.444;2023-09-19T04:47:12;16.50;99.90
7518;DHT22;3800;48.922;9.444;2023-09-19T04:49:41;16.50;99.90
7518;DHT22;3800;48.922;9.444;2023-09-19T04:52:10;16.50;99.90
7518;DHT22;3800;48.922;9.444;2023-09-19T04:54:39;16.50;99.90
7518;DHT22;3800;48.922;9.444;2023-09-19T04:57:07;16.40;99.90
7518;DHT22;3800;48.922;9.444;2023-09-19T04:59:35;16.50;99.90
7518;DHT22;3800;48.922;9.444;2023-09-19T05:02:04;16.50;99.90
7518;DHT22;3800;48.922;9.444;2023-09-19T05:04:33;16.50;99.90
7518;DHT22;3800;48.922;9.444;2023-09-19T05:07:02;16.50;99.90
7518;DHT22;3800;48.922;9.444;2023-09-19T05:09:31;16.50;99.90
7518;DHT22;3800;48.922;9.444;2023-09-19T05:11:59;16.50;99.90
7518;DHT22;3800;48.922;9.444;2023-09-19T05:14:27;16.50;99.90
7518;DHT22;3800;48.922;9.444;2023-09-19T05:16:56;16.50;99.90
7518;DHT22;3800;48.922;9.444;2023-09-19T05:19:25;16.40;99.90
7518;DHT22;3800;48.922;9.444;2023-09-19T05:21:53;16.40;99.90
7518;DHT22;3800;48.922;9.444;2023-09-19T05:24:21;16.40;99.90
7518;DHT22;3800;48.922;9.444;2023-09-19T05:26:50;16.30;99.90
7518;DHT22;3800;48.922;9.444;2023-09-19T05:29:18;16.20;99.90
7518;DHT22;3800;48.922;9.444;2023-09-19T05:31:46;16.10;99.90
7518;DHT22;3800;48.922;9.444;2023-09-19T05:34:14;16.00;99.90
7518;DHT22;3800;48.922;9.444;2023-09-19T05:36:43;15.90;99.90
7518;DHT22;3800;48.922;9.444;2023-09-19T05:39:12;15.80;99.90
7518;DHT22;3800;48.922;9.444;2023-09-19T05:41:41;15.80;99.90
7518;DHT22;3800;48.922;9.444;2023-09-19T05:44:09;15.80;99.90
7518;DHT22;3800;48.922;9.444;2023-09-19T05:46:37;15.80;99.90
7518;DHT22;3800;48.922;9.444;2023-09-19T05:49:06;15.70;99.90
7518;DHT22;3800;48.922;9.444;2023-09-19T05:51:35;15.80;99.90
7518;DHT22;3800;48.922;9.444;2023-09-19T05:54:03;15.70;99.90
7518;DHT22;3800;48.922;9.444;2023-09-19T05:56:31;15.70;99.90
7518;DHT22;3800;48.922;9.444;2023-09-19T05:59:00;15.60;99.90
7518;DHT22;3800;48.922;9.444;2023-09-19T06:01:28;15.60;99.90
7518;DHT22;3800;48.922;9.444;2023-09-19T06:03:57;15.60;99.90
7518;DHT22;3800;48.922;9.444;2023-09-19T06:06:26;15.60;99.90
7518;DHT22;3800;48.922;9.444;2023-09-19T06:08:55;15.60;99.90
7518;DHT22;3800;48.922;9.444;2023-09-19T06:11:24;15.60;99.90
7518;DHT22;3800;48.922;9.444;2023-09-19T06:13:52;15.60;99.90
7518;DHT22;3800;48.922;9.444;2023-09-19T06:16:20;15.60;99.90
7518;DHT22;3800;48.922;9.444;2023-09-19T06:18:49;15.60;99.90
7518;DHT22;3800;48.922;9.444;2023-09-19T06:21:18;15.60;99.90
7518;DHT22;3800;48.922;9.444;2023-09-19T06:23:46;15.60;99.90
7518;DHT22;3800;48.922;9.444;2023-09-19T06:26:15;15.60;99.90
7518;DHT22;3800;48.922;9.444;2023-09-19T06:28:43;15.60;99.90
7518;DHT22;3800;48.922;9.444;2023-09-19T06:31:12;15.60;99.90
7518;DHT22;3800;48.922;9.444;2023-09-19T06:33:40;15.60;99.90
7518;DHT22;3800;48.922;9.444;2023-09-19T06:36:09;15.60;99.90
7518;DHT22;3800;48.922;9.444;2023-09-19T06:38:38;15.60;99.90
7518;DHT22;3800;48.922;9.444;2023-09-19T06:41:06;15.50;99.90
7518;DHT22;3800;48.922;9.444;2023-09-19T06:43:35;15.50;99.90
7518;DHT22;3800;48.922;9.444;2023-09-19T06:46:03;15.40;99.90
7518;DHT22;3800;48.922;9.444;2023-09-19T06:48:32;15.40;99.90
7518;DHT22;3800;48.922;9.444;2023-09-19T06:51:00;15.40;99.90
7518;DHT22;3800;48.922;9.444;2023-09-19T06:53:30;15.40;99.90
7518;DHT22;3800;48.922;9.444;2023-09-19T06:56:00;15.40;99.90
7518;DHT22;3800;48.922;9.444;2023-09-19T06:58:28;15.40;99.90
7518;DHT22;3800;48.922;9.444;2023-09-19T07:00:56;15.40;99.90
7518;DHT22;3800;48.922;9.444;2023-09-19T07:03:24;15.40;99.90
7518;DHT22;3800;48.922;9.444;2023-09-19T07:05:53;15.40;99.90
7518;DHT22;3800;48.922;9.444;2023-09-19T07:08:21;15.50;99.90
7518;DHT22;3800;48.922;9.444;2023-09-19T07:10:50;15.50;99.90
7518;DHT22;3800;48.922;9.444;2023-09-19T07:13:18;15.50;99.90
7518;DHT22;3800;48.922;9.444;2023-09-19T07:15:47;15.50;99.90
7518;DHT22;3800;48.922;9.444;2023-09-19T07:18:15;15.60;99.90
7518;DHT22;3800;48.922;9.444;2023-09-19T07:20:44;15.70;99.90
7518;DHT22;3800;48.922;9.444;2023-09-19T07:23:18;15.80;99.90
7518;DHT22;3800;48.922;9.444;2023-09-19T07:25:45;15.80;99.90
7518;DHT22;3800;48.922;9.444;2023-09-19T07:28:14;15.80;99.90
7518;DHT22;3800;48.922;9.444;2023-09-19T07:30:42;15.90;99.90
7518;DHT22;3800;48.922;9.444;2023-09-19T07:33:10;16.00;99.90
7518;DHT22;3800;48.922;9.444;2023-09-19T07:35:39;16.00;99.90
7518;DHT22;3800;48.922;9.444;2023-09-19T07:38:08;16.00;99.90
7518;DHT22;3800;48.922;9.444;2023-09-19T07:40:36;16.10;99.90
7518;DHT22;3800;48.922;9.444;2023-09-19T07:43:04;16.10;99.90
7518;DHT22;3800;48.922;9.444;2023-09-19T07:45:33;16.00;99.90
7518;DHT22;3800;48.922;9.444;2023-09-19T07:48:01;16.00;99.90
7518;DHT22;3800;48.922;9.444;2023-09-19T07:50:29;16.00;99.90
7518;DHT22;3800;48.922;9.444;2023-09-19T07:52:57;16.00;99.90
7518;DHT22;3800;48.922;9.444;2023-09-19T07:55:26;16.10;99.90
7518;DHT22;3800;48.922;9.444;2023-09-19T07:57:55;16.10;99.90
7518;DHT22;3800;48.922;9.444;2023-09-19T08:00:24;16.30;99.90
7518;DHT22;3800;48.922;9.444;2023-09-19T08:02:52;16.30;99.90
7518;DHT22;3800;48.922;9.444;2023-09-19T08:05:20;16.40;99.90
7518;DHT22;3800;48.922;9.444;2023-09-19T08:07:49;16.40;99.90
7518;DHT22;3800;48.922;9.444;2023-09-19T08:10:17;16.50;99.90
7518;DHT22;3800;48.922;9.444;2023-09-19T08:12:45;16.50;99.90
7518;DHT22;3800;48.922;9.444;2023-09-19T08:15:14;16.60;99.90
7518;DHT22;3800;48.922;9.444;2023-09-19T08:17:42;16.60;99.90
7518;DHT22;3800;48.922;9.444;2023-09-19T08:20:11;16.70;99.90
7518;DHT22;3800;48.922;9.444;2023-09-19T08:22:46;16.70;99.90
7518;DHT22;3800;48.922;9.444;2023-09-19T08:25:15;16.80;99.90
7518;DHT22;3800;48.922;9.444;2023-09-19T08:27:46;16.70;99.90
7518;DHT22;3800;48.922;9.444;2023-09-19T08:30:16;16.70;99.90
7518;DHT22;3800;48.922;9.444;2023-09-19T08:32:44;16.70;99.90
7518;DHT22;3800;48.922;9.444;2023-09-19T08:35:13;16.70;99.90
7518;DHT22;3800;48.922;9.444;2023-09-19T08:37:42;16.80;99.90
7518;DHT22;3800;48.922;9.444;2023-09-19T08:40:10;16.90;99.90
7518;DHT22;3800;48.922;9.444;2023-09-19T08:42:47;16.90;99.90
7518;DHT22;3800;48.922;9.444;2023-09-19T08:45:17;17.00;99.90
7518;DHT22;3800;48.922;9.444;2023-09-19T08:47:46;17.10;99.90
7518;DHT22;3800;48.922;9.444;2023-09-19T08:50:19;17.10;99.90
7518;DHT22;3800;48.922;9.444;2023-09-19T08:52:48;17.20;99.90
7518;DHT22;3800;48.922;9.444;2023-09-19T08:55:16;17.20;99.90
7518;DHT22;3800;48.922;9.444;2023-09-19T08:57:44;17.20;99.90
7518;DHT22;3800;48.922;9.444;2023-09-19T09:00:13;17.30;99.90
7518;DHT22;3800;48.922;9.444;2023-09-19T09:02:44;17.30;99.90
7518;DHT22;3800;48.922;9.444;2023-09-19T09:05:13;17.40;99.90
7518;DHT22;3800;48.922;9.444;2023-09-19T09:07:42;17.40;99.90
7518;DHT22;3800;48.922;9.444;2023-09-19T09:10:13;17.50;99.90
7518;DHT22;3800;48.922;9.444;2023-09-19T09:12:42;17.60;99.90
7518;DHT22;3800;48.922;9.444;2023-09-19T09:15:10;17.60;99.90
7518;DHT22;3800;48.922;9.444;2023-09-19T09:17:38;17.60;99.90
7518;DHT22;3800;48.922;9.444;2023-09-19T09:20:08;17.70;99.90
7518;DHT22;3800;48.922;9.444;2023-09-19T09:22:37;17.70;99.90
7518;DHT22;3800;48.922;9.444;2023-09-19T09:25:06;17.80;99.90
7518;DHT22;3800;48.922;9.444;2023-09-19T09:27:35;17.80;99.90
7518;DHT22;3800;48.922;9.444;2023-09-19T09:30:04;17.90;99.90
7518;DHT22;3800;48.922;9.444;2023-09-19T09:32:32;17.90;99.90
7518;DHT22;3800;48.922;9.444;2023-09-19T09:35:01;18.00;99.90
7518;DHT22;3800;48.922;9.444;2023-09-19T09:37:29;18.10;99.90
7518;DHT22;3800;48.922;9.444;2023-09-19T09:39:58;18.10;99.90
7518;DHT22;3800;48.922;9.444;2023-09-19T09:42:32;18.10;99.90
7518;DHT22;3800;48.922;9.444;2023-09-19T09:48:05;18.00;99.90
7518;DHT22;3800;48.922;9.444;2023-09-19T09:50:35;17.90;99.90
7518;DHT22;3800;48.922;9.444;2023-09-19T09:53:24;17.90;99.90
7518;DHT22;3800;48.922;9.444;2023-09-19T09:56:03;18.00;99.90
7518;DHT22;3800;48.922;9.444;2023-09-19T09:58:37;18.00;99.90
7518;DHT22;3800;48.922;9.444;2023-09-19T10:01:05;18.10;99.90
7518;DHT22;3800;48.922;9.444;2023-09-19T10:03:37;18.20;99.90
7518;DHT22;3800;48.922;9.444;2023-09-19T10:06:10;18.30;99.90
7518;DHT22;3800;48.922;9.444;2023-09-19T10:08:57;18.30;99.90
7518;DHT22;3800;48.922;9.444;2023-09-19T10:11:29;18.40;99.90
7518;DHT22;3800;48.922;9.444;2023-09-19T10:13:58;18.60;99.90
7518;DHT22;3800;48.922;9.444;2023-09-19T10:16:26;18.70;99.90
7518;DHT22;3800;48.922;9.444;2023-09-19T10:18:56;18.80;99.90
7518;DHT22;3800;48.922;9.444;2023-09-19T10:21:24;18.80;99.90
7518;DHT22;3800;48.922;9.444;2023-09-19T10:23:54;18.90;99.90
7518;DHT22;3800;48.922;9.444;2023-09-19T10:26:23;18.80;99.90
7518;DHT22;3800;48.922;9.444;2023-09-19T10:28:51;19.00;99.90
7518;DHT22;3800;48.922;9.444;2023-09-19T10:31:19;19.00;99.90
7518;DHT22;3800;48.922;9.444;2023-09-19T10:33:49;19.00;99.90
7518;DHT22;3800;48.922;9.444;2023-09-19T10:36:17;19.00;99.90
7518;DHT22;3800;48.922;9.444;2023-09-19T10:38:46;19.00;99.90
7518;DHT22;3800;48.922;9.444;2023-09-19T10:41:14;19.10;99.90
7518;DHT22;3800;48.922;9.444;2023-09-19T10:43:42;19.20;99.90
7518;DHT22;3800;48.922;9.444;2023-09-19T10:46:11;19.30;99.90
7518;DHT22;3800;48.922;9.444;2023-09-19T10:48:40;19.30;99.90
7518;DHT22;3800;48.922;9.444;2023-09-19T10:51:18;19.20;99.90
7518;DHT22;3800;48.922;9.444;2023-09-19T10:54:02;19.10;99.90
7518;DHT22;3800;48.922;9.444;2023-09-19T10:56:42;19.00;99.90
7518;DHT22;3800;48.922;9.444;2023-09-19T10:59:09;18.90;99.90
7518;DHT22;3800;48.922;9.444;2023-09-19T11:01:43;19.00;99.90
7518;DHT22;3800;48.922;9.444;2023-09-19T11:04:24;19.00;99.90
7518;DHT22;3800;48.922;9.444;2023-09-19T11:07:02;19.00;99.90
7518;DHT22;3800;48.922;9.444;2023-09-19T11:18:04;19.30;99.90
7518;DHT22;3800;48.922;9.444;2023-09-19T11:20:33;19.20;99.90
7518;DHT22;3800;48.922;9.444;2023-09-19T11:23:17;19.20;99.90
7518;DHT22;3800;48.922;9.444;2023-09-19T11:25:45;19.20;99.90
7518;DHT22;3800;48.922;9.444;2023-09-19T11:28:27;19.30;99.90
7518;DHT22;3800;48.922;9.444;2023-09-19T11:30:56;19.30;99.90
7518;DHT22;3800;48.922;9.444;2023-09-19T11:33:26;19.40;99.90
7518;DHT22;3800;48.922;9.444;2023-09-19T11:36:04;19.40;99.90
7518;DHT22;3800;48.922;9.444;2023-09-19T11:41:36;19.40;99.90
7518;DHT22;3800;48.922;9.444;2023-09-19T11:47:04;19.50;99.90
7518;DHT22;3800;48.922;9.444;2023-09-19T11:49:32;19.40;99.90
7518;DHT22;3800;48.922;9.444;2023-09-19T11:52:00;19.30;99.90
7518;DHT22;3800;48.922;9.444;2023-09-19T11:54:29;19.30;99.90
7518;DHT22;3800;48.922;9.444;2023-09-19T11:56:58;19.30;99.90
7518;DHT22;3800;48.922;9.444;2023-09-19T11:59:27;19.20;99.90
7518;DHT22;3800;48.922;9.444;2023-09-19T12:01:57;19.30;99.90
7518;DHT22;3800;48.922;9.444;2023-09-19T12:04:36;19.50;99.90
7518;DHT22;3800;48.922;9.444;2023-09-19T12:07:08;19.40;99.90
7518;DHT22;3800;48.922;9.444;2023-09-19T12:09:46;19.60;99.90
7518;DHT22;3800;48.922;9.444;2023-09-19T12:12:30;19.70;99.90
7518;DHT22;3800;48.922;9.444;2023-09-19T12:14:58;19.70;99.90
7518;DHT22;3800;48.922;9.444;2023-09-19T12:17:36;19.70;99.90
7518;DHT22;3800;48.922;9.444;2023-09-19T12:20:05;19.70;99.90
7518;DHT22;3800;48.922;9.444;2023-09-19T12:22:41;19.70;99.90
7518;DHT22;3800;48.922;9.444;2023-09-19T12:25:10;19.70;99.90
7518;DHT22;3800;48.922;9.444;2023-09-19T12:27:45;19.80;99.90
7518;DHT22;3800;48.922;9.444;2023-09-19T12:30:15;19.90;99.90
7518;DHT22;3800;48.922;9.444;2023-09-19T12:32:44;20.00;99.90
7518;DHT22;3800;48.922;9.444;2023-09-19T12:35:26;20.00;99.90
7518;DHT22;3800;48.922;9.444;2023-09-19T12:37:44;20.00;99.90
7518;DHT22;3800;48.922;9.444;2023-09-19T12:40:13;20.10;99.90
7518;DHT22;3800;48.922;9.444;2023-09-19T12:42:45;20.10;99.90
7518;DHT22;3800;48.922;9.444;2023-09-19T12:45:15;20.20;99.90
7518;DHT22;3800;48.922;9.444;2023-09-19T12:51:00;20.10;99.90
7518;DHT22;3800;48.922;9.444;2023-09-19T12:53:34;20.10;99.90
7518;DHT22;3800;48.922;9.444;2023-09-19T12:56:11;20.00;99.90
7518;DHT22;3800;48.922;9.444;2023-09-19T12:58:52;19.90;99.90
7518;DHT22;3800;48.922;9.444;2023-09-19T13:01:23;20.00;99.90
7518;DHT22;3800;48.922;9.444;2023-09-19T13:06:39;20.00;99.90
7518;DHT22;3800;48.922;9.444;2023-09-19T13:09:08;20.00;99.90
7518;DHT22;3800;48.922;9.444;2023-09-19T13:11:37;20.00;99.90
7518;DHT22;3800;48.922;9.444;2023-09-19T13:17:06;20.10;99.90
7518;DHT22;3800;48.922;9.444;2023-09-19T13:19:42;20.30;99.90
7518;DHT22;3800;48.922;9.444;2023-09-19T13:25:00;20.30;99.90
7518;DHT22;3800;48.922;9.444;2023-09-19T13:27:29;20.30;99.90
7518;DHT22;3800;48.922;9.444;2023-09-19T13:29:58;20.40;99.90
7518;DHT22;3800;48.922;9.444;2023-09-19T13:32:26;20.40;99.90
7518;DHT22;3800;48.922;9.444;2023-09-19T13:34:54;20.60;99.90
7518;DHT22;3800;48.922;9.444;2023-09-19T13:37:25;20.60;99.90
7518;DHT22;3800;48.922;9.444;2023-09-19T13:39:54;20.60;99.90
7518;DHT22;3800;48.922;9.444;2023-09-19T13:42:24;20.60;99.90
7518;DHT22;3800;48.922;9.444;2023-09-19T13:44:51;20.80;99.90
7518;DHT22;3800;48.922;9.444;2023-09-19T13:47:19;20.80;99.90
7518;DHT22;3800;48.922;9.444;2023-09-19T13:49:49;20.90;99.90
7518;DHT22;3800;48.922;9.444;2023-09-19T13:52:20;21.00;99.90
7518;DHT22;3800;48.922;9.444;2023-09-19T13:54:49;21.00;99.90
7518;DHT22;3800;48.922;9.444;2023-09-19T13:57:18;21.10;99.90
7518;DHT22;3800;48.922;9.444;2023-09-19T13:59:46;21.10;99.90
7518;DHT22;3800;48.922;9.444;2023-09-19T14:02:14;21.20;99.90
7518;DHT22;3800;48.922;9.444;2023-09-19T14:04:43;21.10;99.90
7518;DHT22;3800;48.922;9.444;2023-09-19T14:07:11;21.00;99.90
7518;DHT22;3800;48.922;9.444;2023-09-19T14:09:40;20.90;99.90
7518;DHT22;3800;48.922;9.444;2023-09-19T14:12:09;20.90;99.90
7518;DHT22;3800;48.922;9.444;2023-09-19T14:14:37;20.90;99.90
7518;DHT22;3800;48.922;9.444;2023-09-19T14:17:06;20.80;99.90
7518;DHT22;3800;48.922;9.444;2023-09-19T14:19:34;20.80;99.90
7518;DHT22;3800;48.922;9.444;2023-09-19T14:22:03;20.80;99.90
7518;DHT22;3800;48.922;9.444;2023-09-19T14:24:32;20.80;99.90
7518;DHT22;3800;48.922;9.444;2023-09-19T14:27:01;20.90;99.90
7518;DHT22;3800;48.922;9.444;2023-09-19T14:29:30;20.90;99.90
7518;DHT22;3800;48.922;9.444;2023-09-19T14:31:58;20.90;99.90
7518;DHT22;3800;48.922;9.444;2023-09-19T14:34:28;21.00;99.90
7518;DHT22;3800;48.922;9.444;2023-09-19T14:36:57;20.90;99.90
7518;DHT22;3800;48.922;9.444;2023-09-19T14:39:27;20.80;99.90
7518;DHT22;3800;48.922;9.444;2023-09-19T14:41:56;20.70;99.90
7518;DHT22;3800;48.922;9.444;2023-09-19T14:44:25;20.70;99.90
7518;DHT22;3800;48.922;9.444;2023-09-19T14:46:54;20.60;99.90
7518;DHT22;3800;48.922;9.444;2023-09-19T14:49:23;20.60;99.90
7518;DHT22;3800;48.922;9.444;2023-09-19T14:51:51;20.60;99.90
7518;DHT22;3800;48.922;9.444;2023-09-19T14:54:20;20.60;99.90
7518;DHT22;3800;48.922;9.444;2023-09-19T14:56:50;20.60;99.90
7518;DHT22;3800;48.922;9.444;2023-09-19T14:59:19;20.60;99.90
7518;DHT22;3800;48.922;9.444;2023-09-19T15:01:47;20.60;99.90
7518;DHT22;3800;48.922;9.444;2023-09-19T15:04:17;20.60;99.90
7518;DHT22;3800;48.922;9.444;2023-09-19T15:06:45;20.60;99.90
7518;DHT22;3800;48.922;9.444;2023-09-19T15:09:15;20.60;99.90
7518;DHT22;3800;48.922;9.444;2023-09-19T15:11:44;20.60;99.90
7518;DHT22;3800;48.922;9.444;2023-09-19T15:14:12;20.60;99.90
7518;DHT22;3800;48.922;9.444;2023-09-19T15:16:40;20.60;99.90
7518;DHT22;3800;48.922;9.444;2023-09-19T15:19:11;20.70;99.90
7518;DHT22;3800;48.922;9.444;2023-09-19T15:21:39;20.70;99.90
7518;DHT22;3800;48.922;9.444;2023-09-19T15:24:08;20.60;99.90
7518;DHT22;3800;48.922;9.444;2023-09-19T15:26:37;20.60;99.90
7518;DHT22;3800;48.922;9.444;2023-09-19T15:29:06;20.60;99.90
7518;DHT22;3800;48.922;9.444;2023-09-19T15:31:35;20.50;99.90
7518;DHT22;3800;48.922;9.444;2023-09-19T15:34:05;20.50;99.90
7518;DHT22;3800;48.922;9.444;2023-09-19T15:36:33;20.50;99.90
7518;DHT22;3800;48.922;9.444;2023-09-19T15:39:03;20.50;99.90
7518;DHT22;3800;48.922;9.444;2023-09-19T15:41:31;20.50;99.90
7518;DHT22;3800;48.922;9.444;2023-09-19T15:44:00;20.50;99.90
7518;DHT22;3800;48.922;9.444;2023-09-19T15:46:30;20.40;99.90
7518;DHT22;3800;48.922;9.444;2023-09-19T15:48:58;20.50;99.90
7518;DHT22;3800;48.922;9.444;2023-09-19T15:51:26;20.50;99.90
7518;DHT22;3800;48.922;9.444;2023-09-19T15:53:55;20.60;99.90
7518;DHT22;3800;48.922;9.444;2023-09-19T15:56:23;20.50;99.90
7518;DHT22;3800;48.922;9.444;2023-09-19T15:58:52;20.50;99.90
7518;DHT22;3800;48.922;9.444;2023-09-19T16:01:21;20.50;99.90
7518;DHT22;3800;48.922;9.444;2023-09-19T16:03:50;20.40;99.90
7518;DHT22;3800;48.922;9.444;2023-09-19T16:06:18;20.40;99.90
7518;DHT22;3800;48.922;9.444;2023-09-19T16:08:49;20.40;99.90
7518;DHT22;3800;48.922;9.444;2023-09-19T16:11:17;20.30;99.90
7518;DHT22;3800;48.922;9.444;2023-09-19T16:13:46;20.30;99.90
7518;DHT22;3800;48.922;9.444;2023-09-19T16:16:16;20.20;99.90
7518;DHT22;3800;48.922;9.444;2023-09-19T16:18:46;20.10;99.90
7518;DHT22;3800;48.922;9.444;2023-09-19T16:21:16;20.10;99.90
7518;DHT22;3800;48.922;9.444;2023-09-19T16:23:47;20.00;99.90
7518;DHT22;3800;48.922;9.444;2023-09-19T16:26:17;20.00;99.90
7518;DHT22;3800;48.922;9.444;2023-09-19T16:28:45;20.00;99.90
7518;DHT22;3800;48.922;9.444;2023-09-19T16:31:13;20.00;99.90
7518;DHT22;3800;48.922;9.444;2023-09-19T16:33:43;19.90;99.90
7518;DHT22;3800;48.922;9.444;2023-09-19T16:36:11;19.90;99.90
7518;DHT22;3800;48.922;9.444;2023-09-19T16:38:39;19.70;99.90
7518;DHT22;3800;48.922;9.444;2023-09-19T16:41:07;19.70;99.90
7518;DHT22;3800;48.922;9.444;2023-09-19T16:43:36;19.70;99.90
7518;DHT22;3800;48.922;9.444;2023-09-19T16:46:08;19.70;99.90
7518;DHT22;3800;48.922;9.444;2023-09-19T16:48:44;19.60;99.90
7518;DHT22;3800;48.922;9.444;2023-09-19T16:51:12;19.60;99.90
7518;DHT22;3800;48.922;9.444;2023-09-19T16:53:41;19.60;99.90
7518;DHT22;3800;48.922;9.444;2023-09-19T16:56:11;19.50;99.90